sensor_id;sensor_type;location;lat;lon;timestamp;P1;durP1;ratioP1;P2;durP2;ratioP2
20857;SDS011;10589;53.636;10.012;2023-12-14T04:45:18;7.73;;;3.60;;
20857;SDS011;10589;53.636;10.012;2023-12-14T04:47:45;5.50;;;2.80;;
20857;SDS011;10589;53.636;10.012;2023-12-14T04:50:10;7.23;;;3.60;;
20857;SDS011;10589;53.636;10.012;2023-12-14T04:52:37;8.93;;;3.90;;
20857;SDS011;10589;53.636;10.012;2023-12-14T04:55:02;6.80;;;3.57;;
20857;SDS011;10589;53.636;10.012;2023-12-14T04:57:28;9.33;;;4.50;;
20857;SDS011;10589;53.636;10.012;2023-12-14T04:59:54;5.77;;;3.43;;
20857;SDS011;10589;53.636;10.012;2023-12-14T05:02:19;8.00;;;3.57;;
20857;SDS011;10589;53.636;10.012;2023-12-14T05:04:45;7.30;;;3.33;;
20857;SDS011;10589;53.636;10.012;2023-12-14T05:07:10;9.33;;;3.53;;
20857;SDS011;10589;53.636;10.012;2023-12-14T05:09:36;8.60;;;3.80;;
20857;SDS011;10589;53.636;10.012;2023-12-14T05:12:03;10.70;;;3.83;;
20857;SDS011;10589;53.636;10.012;2023-12-14T05:14:29;8.93;;;3.67;;
20857;SDS011;10589;53.636;10.012;2023-12-14T05:16:54;9.27;;;3.77;;
20857;SDS011;10589;53.636;10.012;2023-12-14T05:19:20;7.10;;;3.63;;
20857;SDS011;10589;53.636;10.012;2023-12-14T05:21:45;10.03;;;4.17;;
20857;SDS011;10589;53.636;10.012;2023-12-14T05:24:11;11.17;;;4.33;;
20857;SDS011;10589;53.636;10.012;2023-12-14T05:26:37;7.13;;;3.80;;
20857;SDS011;10589;53.636;10.012;2023-12-14T05:29:03;10.70;;;4.70;;
20857;SDS011;10589;53.636;10.012;2023-12-14T05:31:28;10.00;;;4.20;;
20857;SDS011;10589;53.636;10.012;2023-12-14T05:33:54;11.13;;;5.33;;
20857;SDS011;10589;53.636;10.012;2023-12-14T05:36:19;8.67;;;4.53;;
20857;SDS011;10589;53.636;10.012;2023-12-14T05:38:46;11.93;;;4.80;;
20857;SDS011;10589;53.636;10.012;2023-12-14T05:41:11;10.17;;;5.67;;
20857;SDS011;10589;53.636;10.012;2023-12-14T05:43:37;10.47;;;5.37;;
20857;SDS011;10589;53.636;10.012;2023-12-14T05:46:02;8.97;;;4.63;;
20857;SDS011;10589;53.636;10.012;2023-12-14T05:48:29;11.03;;;4.87;;
20857;SDS011;10589;53.636;10.012;2023-12-14T05:50:55;10.60;;;5.20;;
20857;SDS011;10589;53.636;10.012;2023-12-14T05:53:21;12.03;;;5.53;;
20857;SDS011;10589;53.636;10.012;2023-12-14T05:55:47;12.43;;;5.93;;
20857;SDS011;10589;53.636;10.012;2023-12-14T05:58:13;11.57;;;5.97;;
20857;SDS011;10589;53.636;10.012;2023-12-14T06:00:38;11.80;;;5.73;;
20857;SDS011;10589;53.636;10.012;2023-12-14T06:03:05;12.03;;;5.93;;
20857;SDS011;10589;53.636;10.012;2023-12-14T06:05:30;11.67;;;5.80;;
20857;SDS011;10589;53.636;10.012;2023-12-14T06:07:56;12.53;;;6.00;;
20857;SDS011;10589;53.636;10.012;2023-12-14T06:10:22;16.30;;;6.40;;
20857;SDS011;10589;53.636;10.012;2023-12-14T06:12:47;13.50;;;6.30;;
20857;SDS011;10589;53.636;10.012;2023-12-14T06:15:13;11.37;;;6.17;;
20857;SDS011;10589;53.636;10.012;2023-12-14T06:17:39;18.87;;;6.43;;
20857;SDS011;10589;53.636;10.012;2023-12-14T06:20:06;10.67;;;6.00;;
20857;SDS011;10589;53.636;10.012;2023-12-14T06:22:38;15.57;;;6.40;;
20857;SDS011;10589;53.636;10.012;2023-12-14T06:25:04;11.90;;;6.53;;
20857;SDS011;10589;53.636;10.012;2023-12-14T06:27:30;14.43;;;7.27;;
20857;SDS011;10589;53.636;10.012;2023-12-14T06:29:55;10.43;;;6.03;;
20857;SDS011;10589;53.636;10.012;2023-12-14T06:32:21;10.60;;;6.50;;
20857;SDS011;10589;53.636;10.012;2023-12-14T06:34:47;10.87;;;6.47;;
20857;SDS011;10589;53.636;10.012;2023-12-14T06:37:12;14.37;;;6.87;;
20857;SDS011;10589;53.636;10.012;2023-12-14T06:39:38;11.10;;;6.13;;
20857;SDS011;10589;53.636;10.012;2023-12-14T06:42:06;10.77;;;6.17;;
20857;SDS011;10589;53.636;10.012;2023-12-14T06:44:31;15.13;;;6.93;;
20857;SDS011;10589;53.636;10.012;2023-12-14T06:46:57;12.70;;;6.57;;
20857;SDS011;10589;53.636;10.012;2023-12-14T06:49:23;10.43;;;6.60;;
20857;SDS011;10589;53.636;10.012;2023-12-14T06:51:49;14.20;;;6.43;;
20857;SDS011;10589;53.636;10.012;2023-12-14T06:54:15;13.00;;;6.77;;
20857;SDS011;10589;53.636;10.012;2023-12-14T06:56:40;15.83;;;7.07;;
20857;SDS011;10589;53.636;10.012;2023-12-14T06:59:06;15.33;;;6.60;;
20857;SDS011;10589;53.636;10.012;2023-12-14T07:01:31;13.27;;;7.00;;
20857;SDS011;10589;53.636;10.012;2023-12-14T07:03:57;9.90;;;6.20;;
20857;SDS011;10589;53.636;10.012;2023-12-14T07:06:22;11.47;;;6.97;;
20857;SDS011;10589;53.636;10.012;2023-12-14T07:08:48;13.33;;;6.30;;
20857;SDS011;10589;53.636;10.012;2023-12-14T07:11:14;11.60;;;6.53;;
20857;SDS011;10589;53.636;10.012;2023-12-14T07:13:39;14.07;;;7.10;;
20857;SDS011;10589;53.636;10.012;2023-12-14T07:16:09;11.30;;;6.47;;
20857;SDS011;10589;53.636;10.012;2023-12-14T07:18:40;13.60;;;6.80;;
20857;SDS011;10589;53.636;10.012;2023-12-14T07:21:07;14.63;;;7.20;;
20857;SDS011;10589;53.636;10.012;2023-12-14T07:23:33;14.00;;;7.37;;
20857;SDS011;10589;53.636;10.012;2023-12-14T07:26:00;16.23;;;7.67;;
20857;SDS011;10589;53.636;10.012;2023-12-14T07:28:26;18.00;;;7.70;;
20857;SDS011;10589;53.636;10.012;2023-12-14T07:30:51;14.53;;;7.93;;
20857;SDS011;10589;53.636;10.012;2023-12-14T07:33:17;14.20;;;7.57;;
20857;SDS011;10589;53.636;10.012;2023-12-14T07:35:43;14.97;;;7.87;;
20857;SDS011;10589;53.636;10.012;2023-12-14T07:38:11;13.57;;;7.90;;
20857;SDS011;10589;53.636;10.012;2023-12-14T07:40:38;15.50;;;7.97;;
20857;SDS011;10589;53.636;10.012;2023-12-14T07:43:04;17.80;;;9.00;;
20857;SDS011;10589;53.636;10.012;2023-12-14T07:45:30;20.27;;;8.40;;
20857;SDS011;10589;53.636;10.012;2023-12-14T07:47:55;14.97;;;8.10;;
20857;SDS011;10589;53.636;10.012;2023-12-14T07:50:21;16.90;;;7.97;;
20857;SDS011;10589;53.636;10.012;2023-12-14T07:52:47;17.87;;;8.27;;
20857;SDS011;10589;53.636;10.012;2023-12-14T07:55:12;14.33;;;7.90;;
20857;SDS011;10589;53.636;10.012;2023-12-14T07:57:41;15.13;;;8.43;;
20857;SDS011;10589;53.636;10.012;2023-12-14T08:00:07;14.67;;;8.07;;
20857;SDS011;10589;53.636;10.012;2023-12-14T08:02:36;16.50;;;8.47;;
20857;SDS011;10589;53.636;10.012;2023-12-14T08:05:02;14.90;;;8.53;;
20857;SDS011;10589;53.636;10.012;2023-12-14T08:07:28;16.17;;;8.47;;
20857;SDS011;10589;53.636;10.012;2023-12-14T08:09:54;17.93;;;7.93;;
20857;SDS011;10589;53.636;10.012;2023-12-14T08:12:21;18.27;;;8.47;;
20857;SDS011;10589;53.636;10.012;2023-12-14T08:14:47;15.60;;;8.20;;
20857;SDS011;10589;53.636;10.012;2023-12-14T08:17:13;11.97;;;7.70;;
20857;SDS011;10589;53.636;10.012;2023-12-14T08:19:38;16.00;;;7.07;;
20857;SDS011;10589;53.636;10.012;2023-12-14T08:22:04;16.27;;;7.33;;
20857;SDS011;10589;53.636;10.012;2023-12-14T08:24:29;14.30;;;7.20;;
20857;SDS011;10589;53.636;10.012;2023-12-14T08:26:55;12.03;;;7.20;;
20857;SDS011;10589;53.636;10.012;2023-12-14T08:29:21;18.73;;;7.70;;
20857;SDS011;10589;53.636;10.012;2023-12-14T08:31:47;13.90;;;6.90;;
20857;SDS011;10589;53.636;10.012;2023-12-14T08:34:13;13.40;;;7.53;;
20857;SDS011;10589;53.636;10.012;2023-12-14T08:36:39;11.10;;;6.87;;
20857;SDS011;10589;53.636;10.012;2023-12-14T08:39:05;9.77;;;6.07;;
20857;SDS011;10589;53.636;10.012;2023-12-14T08:41:30;11.07;;;6.33;;
20857;SDS011;10589;53.636;10.012;2023-12-14T08:43:56;11.60;;;7.10;;
20857;SDS011;10589;53.636;10.012;2023-12-14T08:46:21;16.57;;;6.43;;
20857;SDS011;10589;53.636;10.012;2023-12-14T08:48:48;10.93;;;6.10;;
20857;SDS011;10589;53.636;10.012;2023-12-14T08:51:13;9.27;;;5.77;;
20857;SDS011;10589;53.636;10.012;2023-12-14T08:53:39;13.47;;;6.27;;
20857;SDS011;10589;53.636;10.012;2023-12-14T08:56:05;12.07;;;6.07;;
20857;SDS011;10589;53.636;10.012;2023-12-14T08:58:31;11.17;;;6.03;;
20857;SDS011;10589;53.636;10.012;2023-12-14T09:00:56;9.67;;;6.20;;
20857;SDS011;10589;53.636;10.012;2023-12-14T09:03:22;9.93;;;5.80;;
20857;SDS011;10589;53.636;10.012;2023-12-14T09:05:48;11.83;;;6.30;;
20857;SDS011;10589;53.636;10.012;2023-12-14T09:08:13;9.77;;;5.90;;
20857;SDS011;10589;53.636;10.012;2023-12-14T09:10:39;12.90;;;7.07;;
20857;SDS011;10589;53.636;10.012;2023-12-14T09:13:05;13.07;;;7.17;;
20857;SDS011;10589;53.636;10.012;2023-12-14T09:15:31;10.37;;;6.90;;
20857;SDS011;10589;53.636;10.012;2023-12-14T09:17:57;11.83;;;6.50;;
20857;SDS011;10589;53.636;10.012;2023-12-14T09:20:23;12.53;;;6.90;;
20857;SDS011;10589;53.636;10.012;2023-12-14T09:22:48;11.30;;;7.10;;
20857;SDS011;10589;53.636;10.012;2023-12-14T09:25:14;9.90;;;6.07;;
20857;SDS011;10589;53.636;10.012;2023-12-14T09:27:40;12.20;;;6.43;;
20857;SDS011;10589;53.636;10.012;2023-12-14T09:30:06;13.63;;;6.70;;
20857;SDS011;10589;53.636;10.012;2023-12-14T09:32:32;14.33;;;7.20;;
20857;SDS011;10589;53.636;10.012;2023-12-14T09:34:58;10.23;;;6.43;;
20857;SDS011;10589;53.636;10.012;2023-12-14T09:37:24;12.30;;;6.57;;
20857;SDS011;10589;53.636;10.012;2023-12-14T09:39:50;11.87;;;6.60;;
20857;SDS011;10589;53.636;10.012;2023-12-14T09:42:16;10.77;;;6.50;;
20857;SDS011;10589;53.636;10.012;2023-12-14T09:44:45;9.67;;;6.57;;
20857;SDS011;10589;53.636;10.012;2023-12-14T09:47:12;11.77;;;6.40;;
20857;SDS011;10589;53.636;10.012;2023-12-14T09:49:37;9.60;;;6.43;;
20857;SDS011;10589;53.636;10.012;2023-12-14T09:52:06;9.30;;;6.60;;
20857;SDS011;10589;53.636;10.012;2023-12-14T09:54:31;13.33;;;6.77;;
20857;SDS011;10589;53.636;10.012;2023-12-14T09:56:57;10.90;;;6.30;;
20857;SDS011;10589;53.636;10.012;2023-12-14T09:59:23;12.03;;;6.47;;
20857;SDS011;10589;53.636;10.012;2023-12-14T10:01:48;10.53;;;6.23;;
20857;SDS011;10589;53.636;10.012;2023-12-14T10:04:15;13.33;;;6.80;;
20857;SDS011;10589;53.636;10.012;2023-12-14T10:06:43;9.63;;;6.63;;
20857;SDS011;10589;53.636;10.012;2023-12-14T10:09:10;10.53;;;6.03;;
20857;SDS011;10589;53.636;10.012;2023-12-14T10:11:41;8.23;;;5.43;;
20857;SDS011;10589;53.636;10.012;2023-12-14T10:14:21;8.20;;;5.17;;
20857;SDS011;10589;53.636;10.012;2023-12-14T10:16:50;10.43;;;5.33;;
20857;SDS011;10589;53.636;10.012;2023-12-14T10:19:17;6.33;;;4.90;;
20857;SDS011;10589;53.636;10.012;2023-12-14T10:21:44;10.57;;;5.40;;
20857;SDS011;10589;53.636;10.012;2023-12-14T10:24:11;9.87;;;5.67;;
20857;SDS011;10589;53.636;10.012;2023-12-14T10:26:38;9.80;;;5.80;;
20857;SDS011;10589;53.636;10.012;2023-12-14T10:29:03;8.97;;;5.77;;
20857;SDS011;10589;53.636;10.012;2023-12-14T10:31:32;7.63;;;5.77;;
20857;SDS011;10589;53.636;10.012;2023-12-14T10:34:02;8.27;;;5.63;;
20857;SDS011;10589;53.636;10.012;2023-12-14T10:36:28;9.87;;;5.47;;
20857;SDS011;10589;53.636;10.012;2023-12-14T10:38:56;9.03;;;5.30;;
20857;SDS011;10589;53.636;10.012;2023-12-14T10:41:23;7.90;;;5.20;;
20857;SDS011;10589;53.636;10.012;2023-12-14T10:43:53;9.23;;;5.40;;
20857;SDS011;10589;53.636;10.012;2023-12-14T10:46:20;8.00;;;5.43;;
20857;SDS011;10589;53.636;10.012;2023-12-14T10:48:55;8.20;;;5.80;;
20857;SDS011;10589;53.636;10.012;2023-12-14T10:51:21;8.37;;;5.37;;
20857;SDS011;10589;53.636;10.012;2023-12-14T10:53:48;8.70;;;6.07;;
20857;SDS011;10589;53.636;10.012;2023-12-14T10:56:17;8.23;;;5.60;;
20857;SDS011;10589;53.636;10.012;2023-12-14T10:58:53;11.10;;;6.60;;
20857;SDS011;10589;53.636;10.012;2023-12-14T11:01:24;7.90;;;5.07;;
20857;SDS011;10589;53.636;10.012;2023-12-14T11:03:50;8.10;;;5.80;;
20857;SDS011;10589;53.636;10.012;2023-12-14T11:08:56;10.47;;;6.00;;
20857;SDS011;10589;53.636;10.012;2023-12-14T11:11:31;11.77;;;6.20;;
20857;SDS011;10589;53.636;10.012;2023-12-14T11:14:08;9.67;;;5.83;;
20857;SDS011;10589;53.636;10.012;2023-12-14T11:16:37;12.30;;;6.17;;
20857;SDS011;10589;53.636;10.012;2023-12-14T11:24:21;13.83;;;6.70;;
20857;SDS011;10589;53.636;10.012;2023-12-14T11:26:49;10.47;;;6.77;;
20857;SDS011;10589;53.636;10.012;2023-12-14T11:29:15;8.80;;;5.63;;
20857;SDS011;10589;53.636;10.012;2023-12-14T11:31:41;12.23;;;6.80;;
20857;SDS011;10589;53.636;10.012;2023-12-14T11:34:07;9.63;;;5.93;;
20857;SDS011;10589;53.636;10.012;2023-12-14T11:36:33;8.50;;;6.10;;
20857;SDS011;10589;53.636;10.012;2023-12-14T11:38:59;8.80;;;6.93;;
20857;SDS011;10589;53.636;10.012;2023-12-14T11:41:24;10.20;;;6.33;;
20857;SDS011;10589;53.636;10.012;2023-12-14T11:43:51;9.53;;;5.83;;
20857;SDS011;10589;53.636;10.012;2023-12-14T11:46:17;10.20;;;5.93;;
20857;SDS011;10589;53.636;10.012;2023-12-14T11:48:44;11.83;;;6.97;;
20857;SDS011;10589;53.636;10.012;2023-12-14T11:51:11;12.43;;;7.00;;
20857;SDS011;10589;53.636;10.012;2023-12-14T11:53:37;10.40;;;6.60;;
20857;SDS011;10589;53.636;10.012;2023-12-14T11:56:07;10.20;;;6.17;;
20857;SDS011;10589;53.636;10.012;2023-12-14T11:58:34;9.80;;;5.90;;
20857;SDS011;10589;53.636;10.012;2023-12-14T12:01:16;14.57;;;6.77;;
20857;SDS011;10589;53.636;10.012;2023-12-14T12:03:43;14.27;;;7.37;;
20857;SDS011;10589;53.636;10.012;2023-12-14T12:06:22;13.07;;;6.40;;
20857;SDS011;10589;53.636;10.012;2023-12-14T12:08:55;9.63;;;6.30;;
20857;SDS011;10589;53.636;10.012;2023-12-14T12:11:22;11.03;;;6.60;;
20857;SDS011;10589;53.636;10.012;2023-12-14T12:13:53;15.07;;;6.07;;
20857;SDS011;10589;53.636;10.012;2023-12-14T12:16:20;10.33;;;5.97;;
20857;SDS011;10589;53.636;10.012;2023-12-14T12:18:46;11.30;;;5.97;;
20857;SDS011;10589;53.636;10.012;2023-12-14T12:21:12;10.73;;;5.83;;
20857;SDS011;10589;53.636;10.012;2023-12-14T12:23:38;11.03;;;6.70;;
20857;SDS011;10589;53.636;10.012;2023-12-14T12:26:04;10.57;;;6.00;;
20857;SDS011;10589;53.636;10.012;2023-12-14T12:28:30;10.17;;;6.10;;
20857;SDS011;10589;53.636;10.012;2023-12-14T12:30:56;11.47;;;6.37;;
20857;SDS011;10589;53.636;10.012;2023-12-14T12:33:22;14.03;;;6.27;;
20857;SDS011;10589;53.636;10.012;2023-12-14T12:35:48;12.73;;;6.77;;
20857;SDS011;10589;53.636;10.012;2023-12-14T12:38:14;12.67;;;6.30;;
20857;SDS011;10589;53.636;10.012;2023-12-14T12:40:41;8.60;;;6.23;;
20857;SDS011;10589;53.636;10.012;2023-12-14T12:43:07;10.70;;;6.33;;
20857;SDS011;10589;53.636;10.012;2023-12-14T12:45:32;11.67;;;6.20;;
20857;SDS011;10589;53.636;10.012;2023-12-14T12:48:00;12.57;;;6.83;;
20857;SDS011;10589;53.636;10.012;2023-12-14T12:50:28;12.73;;;6.20;;
20857;SDS011;10589;53.636;10.012;2023-12-14T12:52:53;12.07;;;6.23;;
20857;SDS011;10589;53.636;10.012;2023-12-14T12:55:19;15.20;;;7.10;;
20857;SDS011;10589;53.636;10.012;2023-12-14T12:57:44;13.57;;;7.00;;
20857;SDS011;10589;53.636;10.012;2023-12-14T13:00:10;10.50;;;5.90;;
20857;SDS011;10589;53.636;10.012;2023-12-14T13:02:37;10.97;;;6.10;;
20857;SDS011;10589;53.636;10.012;2023-12-14T13:05:04;9.87;;;6.27;;
20857;SDS011;10589;53.636;10.012;2023-12-14T13:07:31;13.07;;;5.93;;
20857;SDS011;10589;53.636;10.012;2023-12-14T13:09:57;10.37;;;6.10;;
20857;SDS011;10589;53.636;10.012;2023-12-14T13:12:22;12.17;;;6.13;;
20857;SDS011;10589;53.636;10.012;2023-12-14T13:14:48;11.40;;;6.87;;
20857;SDS011;10589;53.636;10.012;2023-12-14T13:17:13;11.60;;;6.63;;
20857;SDS011;10589;53.636;10.012;2023-12-14T13:19:41;11.40;;;6.40;;
20857;SDS011;10589;53.636;10.012;2023-12-14T13:22:07;9.87;;;6.10;;
20857;SDS011;10589;53.636;10.012;2023-12-14T13:24:33;12.10;;;6.53;;
20857;SDS011;10589;53.636;10.012;2023-12-14T13:26:59;8.90;;;5.97;;
20857;SDS011;10589;53.636;10.012;2023-12-14T13:29:24;10.90;;;6.23;;
20857;SDS011;10589;53.636;10.012;2023-12-14T13:31:50;13.27;;;5.77;;
20857;SDS011;10589;53.636;10.012;2023-12-14T13:34:15;11.67;;;5.77;;
20857;SDS011;10589;53.636;10.012;2023-12-14T13:36:41;11.27;;;5.93;;
20857;SDS011;10589;53.636;10.012;2023-12-14T13:39:07;11.80;;;6.23;;
20857;SDS011;10589;53.636;10.012;2023-12-14T13:41:32;9.30;;;6.20;;
20857;SDS011;10589;53.636;10.012;2023-12-14T13:43:59;12.67;;;6.20;;
20857;SDS011;10589;53.636;10.012;2023-12-14T13:46:25;9.90;;;5.93;;
20857;SDS011;10589;53.636;10.012;2023-12-14T13:48:51;10.20;;;5.73;;
20857;SDS011;10589;53.636;10.012;2023-12-14T13:51:18;12.43;;;6.13;;
20857;SDS011;10589;53.636;10.012;2023-12-14T13:53:44;11.57;;;5.93;;
20857;SDS011;10589;53.636;10.012;2023-12-14T13:56:10;9.23;;;5.90;;
20857;SDS011;10589;53.636;10.012;2023-12-14T13:58:35;10.70;;;5.77;;
20857;SDS011;10589;53.636;10.012;2023-12-14T14:01:03;12.73;;;5.83;;
20857;SDS011;10589;53.636;10.012;2023-12-14T14:03:32;8.23;;;5.87;;
20857;SDS011;10589;53.636;10.012;2023-12-14T14:06:00;12.33;;;5.90;;
20857;SDS011;10589;53.636;10.012;2023-12-14T14:08:27;12.63;;;6.20;;
20857;SDS011;10589;53.636;10.012;2023-12-14T14:10:52;9.77;;;5.47;;
20857;SDS011;10589;53.636;10.012;2023-12-14T14:13:18;8.53;;;5.33;;
20857;SDS011;10589;53.636;10.012;2023-12-14T14:15:45;10.67;;;5.87;;
20857;SDS011;10589;53.636;10.012;2023-12-14T14:18:11;13.47;;;6.07;;
20857;SDS011;10589;53.636;10.012;2023-12-14T14:20:36;12.63;;;5.83;;
20857;SDS011;10589;53.636;10.012;2023-12-14T14:23:02;11.90;;;6.13;;
20857;SDS011;10589;53.636;10.012;2023-12-14T14:25:27;10.97;;;6.10;;
20857;SDS011;10589;53.636;10.012;2023-12-14T14:27:53;10.23;;;5.17;;
20857;SDS011;10589;53.636;10.012;2023-12-14T14:30:19;10.63;;;5.60;;
20857;SDS011;10589;53.636;10.012;2023-12-14T14:32:45;8.00;;;5.37;;
20857;SDS011;10589;53.636;10.012;2023-12-14T14:35:11;10.17;;;5.70;;
20857;SDS011;10589;53.636;10.012;2023-12-14T14:37:36;7.03;;;5.03;;
20857;SDS011;10589;53.636;10.012;2023-12-14T14:40:02;9.33;;;5.73;;
20857;SDS011;10589;53.636;10.012;2023-12-14T14:42:29;9.33;;;5.30;;
20857;SDS011;10589;53.636;10.012;2023-12-14T14:44:55;9.10;;;4.97;;
20857;SDS011;10589;53.636;10.012;2023-12-14T14:47:21;9.77;;;5.67;;
20857;SDS011;10589;53.636;10.012;2023-12-14T14:49:47;10.23;;;5.07;;
20857;SDS011;10589;53.636;10.012;2023-12-14T14:52:12;11.33;;;5.60;;
20857;SDS011;10589;53.636;10.012;2023-12-14T14:54:38;7.67;;;5.50;;
20857;SDS011;10589;53.636;10.012;2023-12-14T14:57:05;9.77;;;5.33;;
20857;SDS011;10589;53.636;10.012;2023-12-14T14:59:31;9.27;;;5.43;;
20857;SDS011;10589;53.636;10.012;2023-12-14T15:01:57;8.33;;;5.10;;
20857;SDS011;10589;53.636;10.012;2023-12-14T15:04:25;9.27;;;5.40;;
20857;SDS011;10589;53.636;10.012;2023-12-14T15:06:50;7.73;;;4.93;;
20857;SDS011;10589;53.636;10.012;2023-12-14T15:09:16;5.83;;;4.60;;
20857;SDS011;10589;53.636;10.012;2023-12-14T15:11:41;9.50;;;5.27;;
20857;SDS011;10589;53.636;10.012;2023-12-14T15:14:07;9.00;;;5.67;;
20857;SDS011;10589;53.636;10.012;2023-12-14T15:16:33;8.63;;;6.17;;
20857;SDS011;10589;53.636;10.012;2023-12-14T15:19:00;11.07;;;6.10;;
20857;SDS011;10589;53.636;10.012;2023-12-14T15:21:25;11.27;;;6.47;;
20857;SDS011;10589;53.636;10.012;2023-12-14T15:23:51;11.80;;;6.30;;
20857;SDS011;10589;53.636;10.012;2023-12-14T15:26:16;9.20;;;5.63;;
20857;SDS011;10589;53.636;10.012;2023-12-14T15:28:42;10.73;;;6.57;;
20857;SDS011;10589;53.636;10.012;2023-12-14T15:31:08;9.53;;;6.10;;
20857;SDS011;10589;53.636;10.012;2023-12-14T15:33:33;12.80;;;6.13;;
20857;SDS011;10589;53.636;10.012;2023-12-14T15:35:59;9.10;;;6.20;;
20857;SDS011;10589;53.636;10.012;2023-12-14T15:38:25;9.90;;;5.70;;
20857;SDS011;10589;53.636;10.012;2023-12-14T15:40:53;11.00;;;5.90;;
20857;SDS011;10589;53.636;10.012;2023-12-14T15:43:19;11.13;;;6.50;;
20857;SDS011;10589;53.636;10.012;2023-12-14T15:45:44;9.00;;;5.47;;
20857;SDS011;10589;53.636;10.012;2023-12-14T15:48:10;10.27;;;6.20;;
20857;SDS011;10589;53.636;10.012;2023-12-14T15:50:36;10.27;;;5.87;;
20857;SDS011;10589;53.636;10.012;2023-12-14T15:53:03;11.00;;;6.40;;
20857;SDS011;10589;53.636;10.012;2023-12-14T15:55:29;12.47;;;6.70;;
20857;SDS011;10589;53.636;10.012;2023-12-14T15:57:55;12.37;;;6.63;;
20857;SDS011;10589;53.636;10.012;2023-12-14T16:00:21;10.80;;;5.77;;
20857;SDS011;10589;53.636;10.012;2023-12-14T16:02:46;9.03;;;5.57;;
20857;SDS011;10589;53.636;10.012;2023-12-14T16:05:12;10.33;;;6.37;;
20857;SDS011;10589;53.636;10.012;2023-12-14T16:07:38;9.87;;;6.30;;
20857;SDS011;10589;53.636;10.012;2023-12-14T16:10:04;11.73;;;6.60;;
20857;SDS011;10589;53.636;10.012;2023-12-14T16:12:30;10.17;;;5.70;;
20857;SDS011;10589;53.636;10.012;2023-12-14T16:14:56;13.77;;;6.83;;
20857;SDS011;10589;53.636;10.012;2023-12-14T16:17:25;12.43;;;6.13;;
20857;SDS011;10589;53.636;10.012;2023-12-14T16:19:50;12.50;;;6.77;;
20857;SDS011;10589;53.636;10.012;2023-12-14T16:22:16;9.50;;;6.57;;
20857;SDS011;10589;53.636;10.012;2023-12-14T16:24:42;10.23;;;7.37;;
20857;SDS011;10589;53.636;10.012;2023-12-14T16:27:09;10.73;;;6.90;;
20857;SDS011;10589;53.636;10.012;2023-12-14T16:29:35;11.63;;;7.30;;
20857;SDS011;10589;53.636;10.012;2023-12-14T16:32:02;17.87;;;8.20;;
20857;SDS011;10589;53.636;10.012;2023-12-14T16:34:29;12.03;;;8.00;;
20857;SDS011;10589;53.636;10.012;2023-12-14T16:36:55;12.77;;;6.90;;
20857;SDS011;10589;53.636;10.012;2023-12-14T16:39:20;12.30;;;7.10;;
20857;SDS011;10589;53.636;10.012;2023-12-14T16:41:46;10.53;;;7.50;;
20857;SDS011;10589;53.636;10.012;2023-12-14T16:44:12;12.50;;;7.30;;
20857;SDS011;10589;53.636;10.012;2023-12-14T16:46:38;12.63;;;7.30;;
20857;SDS011;10589;53.636;10.012;2023-12-14T16:49:03;12.53;;;7.70;;
20857;SDS011;10589;53.636;10.012;2023-12-14T16:51:29;11.70;;;7.90;;
20857;SDS011;10589;53.636;10.012;2023-12-14T16:53:55;11.60;;;8.30;;
20857;SDS011;10589;53.636;10.012;2023-12-14T16:56:27;11.20;;;7.37;;
20857;SDS011;10589;53.636;10.012;2023-12-14T16:58:54;11.50;;;7.43;;
20857;SDS011;10589;53.636;10.012;2023-12-14T17:01:20;15.13;;;7.80;;
20857;SDS011;10589;53.636;10.012;2023-12-14T17:03:46;15.53;;;8.30;;
20857;SDS011;10589;53.636;10.012;2023-12-14T17:06:16;11.57;;;7.80;;
20857;SDS011;10589;53.636;10.012;2023-12-14T17:08:42;11.60;;;7.37;;
20857;SDS011;10589;53.636;10.012;2023-12-14T17:11:09;13.67;;;7.87;;
20857;SDS011;10589;53.636;10.012;2023-12-14T17:13:34;11.60;;;7.20;;
20857;SDS011;10589;53.636;10.012;2023-12-14T17:16:00;15.87;;;8.97;;
20857;SDS011;10589;53.636;10.012;2023-12-14T17:18:26;16.80;;;9.57;;
20857;SDS011;10589;53.636;10.012;2023-12-14T17:20:51;20.13;;;11.20;;
20857;SDS011;10589;53.636;10.012;2023-12-14T17:23:17;18.60;;;10.50;;
20857;SDS011;10589;53.636;10.012;2023-12-14T17:25:43;14.83;;;9.63;;
20857;SDS011;10589;53.636;10.012;2023-12-14T17:28:08;17.30;;;10.40;;
20857;SDS011;10589;53.636;10.012;2023-12-14T17:30:35;18.10;;;10.70;;
20857;SDS011;10589;53.636;10.012;2023-12-14T17:33:02;17.87;;;10.03;;
20857;SDS011;10589;53.636;10.012;2023-12-14T17:35:30;17.43;;;10.07;;
20857;SDS011;10589;53.636;10.012;2023-12-14T17:37:56;12.57;;;8.23;;
20857;SDS011;10589;53.636;10.012;2023-12-14T17:40:22;13.77;;;8.87;;
20857;SDS011;10589;53.636;10.012;2023-12-14T17:42:49;15.30;;;9.73;;
20857;SDS011;10589;53.636;10.012;2023-12-14T17:45:14;11.63;;;8.80;;
20857;SDS011;10589;53.636;10.012;2023-12-14T17:47:40;13.77;;;8.00;;
20857;SDS011;10589;53.636;10.012;2023-12-14T17:50:06;12.97;;;8.10;;
20857;SDS011;10589;53.636;10.012;2023-12-14T17:52:32;13.33;;;7.90;;
20857;SDS011;10589;53.636;10.012;2023-12-14T17:54:57;16.70;;;8.50;;
20857;SDS011;10589;53.636;10.012;2023-12-14T17:57:23;11.67;;;8.13;;
20857;SDS011;10589;53.636;10.012;2023-12-14T17:59:48;12.50;;;7.70;;
20857;SDS011;10589;53.636;10.012;2023-12-14T18:02:14;13.00;;;8.27;;
20857;SDS011;10589;53.636;10.012;2023-12-14T18:04:40;10.80;;;7.50;;
20857;SDS011;10589;53.636;10.012;2023-12-14T18:07:05;12.27;;;7.77;;
20857;SDS011;10589;53.636;10.012;2023-12-14T18:09:31;11.90;;;8.23;;
20857;SDS011;10589;53.636;10.012;2023-12-14T18:11:57;13.93;;;8.03;;
20857;SDS011;10589;53.636;10.012;2023-12-14T18:14:22;12.87;;;8.20;;
20857;SDS011;10589;53.636;10.012;2023-12-14T18:16:48;13.13;;;8.10;;
20857;SDS011;10589;53.636;10.012;2023-12-14T18:19:14;12.33;;;8.10;;
20857;SDS011;10589;53.636;10.012;2023-12-14T18:21:39;11.40;;;8.23;;
20857;SDS011;10589;53.636;10.012;2023-12-14T18:24:05;13.70;;;8.87;;
20857;SDS011;10589;53.636;10.012;2023-12-14T18:26:30;12.93;;;8.57;;
20857;SDS011;10589;53.636;10.012;2023-12-14T18:28:56;13.90;;;8.00;;
20857;SDS011;10589;53.636;10.012;2023-12-14T18:31:22;13.60;;;8.23;;
20857;SDS011;10589;53.636;10.012;2023-12-14T18:33:47;10.20;;;7.50;;
20857;SDS011;10589;53.636;10.012;2023-12-14T18:36:17;19.53;;;8.33;;
20857;SDS011;10589;53.636;10.012;2023-12-14T18:38:44;10.90;;;7.90;;
20857;SDS011;10589;53.636;10.012;2023-12-14T18:41:09;17.70;;;8.80;;
20857;SDS011;10589;53.636;10.012;2023-12-14T18:43:35;12.00;;;8.00;;
20857;SDS011;10589;53.636;10.012;2023-12-14T18:46:04;11.87;;;8.00;;
20857;SDS011;10589;53.636;10.012;2023-12-14T18:48:30;14.10;;;8.30;;
20857;SDS011;10589;53.636;10.012;2023-12-14T18:50:56;12.93;;;8.77;;
20857;SDS011;10589;53.636;10.012;2023-12-14T18:53:22;15.07;;;8.70;;
20857;SDS011;10589;53.636;10.012;2023-12-14T18:55:47;14.20;;;8.77;;
20857;SDS011;10589;53.636;10.012;2023-12-14T18:58:13;13.43;;;8.87;;
20857;SDS011;10589;53.636;10.012;2023-12-14T19:00:38;15.83;;;9.20;;
20857;SDS011;10589;53.636;10.012;2023-12-14T19:03:04;10.87;;;8.17;;
20857;SDS011;10589;53.636;10.012;2023-12-14T19:05:32;12.20;;;8.60;;
20857;SDS011;10589;53.636;10.012;2023-12-14T19:07:59;12.63;;;8.60;;
20857;SDS011;10589;53.636;10.012;2023-12-14T19:10:24;11.77;;;8.67;;